sensor_id;sensor_type;location;lat;lon;timestamp;pressure;altitude;pressure_sealevel;temperature;humidity
57779;BME280;43608;49.486;9.640;2023-02-19T00:00:25;99103.25;;;8.36;84.11
57779;BME280;43608;49.486;9.640;2023-02-19T00:00:56;99116.56;;;8.43;83.89
57779;BME280;43608;49.486;9.640;2023-02-19T00:01:32;99112.97;;;8.40;84.32
57779;BME280;43608;49.486;9.640;2023-02-19T00:02:02;99104.16;;;8.36;84.39
57779;BME280;43608;49.486;9.640;2023-02-19T00:02:32;99115.63;;;8.38;84.45
57779;BME280;43608;49.486;9.640;2023-02-19T00:03:04;99108.53;;;8.36;84.54
57779;BME280;43608;49.486;9.640;2023-02-19T00:03:36;99104.09;;;8.32;84.64
57779;BME280;43608;49.486;9.640;2023-02-19T00:04:13;99097.88;;;8.28;84.58
57779;BME280;43608;49.486;9.640;2023-02-19T00:04:43;99108.53;;;8.36;84.61
57779;BME280;43608;49.486;9.640;2023-02-19T00:05:14;99100.53;;;8.28;84.59
57779;BME280;43608;49.486;9.640;2023-02-19T00:05:44;99096.09;;;8.27;84.63
57779;BME280;43608;49.486;9.640;2023-02-19T00:06:14;99089.00;;;8.21;84.73
57779;BME280;43608;49.486;9.640;2023-02-19T00:06:45;99118.22;;;8.35;84.62
57779;BME280;43608;49.486;9.640;2023-02-19T00:07:16;99081.00;;;8.15;84.85
57779;BME280;43608;49.486;9.640;2023-02-19T00:07:47;99113.81;;;8.34;85.11
57779;BME280;43608;49.486;9.640;2023-02-19T00:08:17;99094.38;;;8.26;84.96
57779;BME280;43608;49.486;9.640;2023-02-19T00:08:48;99104.09;;;8.30;85.02
57779;BME280;43608;49.486;9.640;2023-02-19T00:09:19;99102.31;;;8.31;85.09
57779;BME280;43608;49.486;9.640;2023-02-19T00:09:50;99066.00;;;8.09;84.98
57779;BME280;43608;49.486;9.640;2023-02-19T00:10:20;99096.09;;;8.27;84.99
57779;BME280;43608;49.486;9.640;2023-02-19T00:10:51;99104.97;;;8.31;85.17
57779;BME280;43608;49.486;9.640;2023-02-19T00:11:24;99105.88;;;8.31;85.00
57779;BME280;43608;49.486;9.640;2023-02-19T00:11:55;99111.09;;;8.30;85.05
57779;BME280;43608;49.486;9.640;2023-02-19T00:12:26;99081.88;;;8.13;85.20
57779;BME280;43608;49.486;9.640;2023-02-19T00:12:56;99080.13;;;8.12;85.17
57779;BME280;43608;49.486;9.640;2023-02-19T00:13:27;99099.66;;;8.27;85.15
57779;BME280;43608;49.486;9.640;2023-02-19T00:13:58;99109.38;;;8.30;85.21
57779;BME280;43608;49.486;9.640;2023-02-19T00:14:29;99114.59;;;8.27;85.30
57779;BME280;43608;49.486;9.640;2023-02-19T00:14:59;99119.03;;;8.30;85.42
57779;BME280;43608;49.486;9.640;2023-02-19T00:15:33;99101.34;;;8.21;85.37
57779;BME280;43608;49.486;9.640;2023-02-19T00:16:39;99096.06;;;8.19;85.46
57779;BME280;43608;49.486;9.640;2023-02-19T00:17:09;99109.38;;;8.30;85.44
57779;BME280;43608;49.486;9.640;2023-02-19T00:17:39;99099.59;;;8.23;85.69
57779;BME280;43608;49.486;9.640;2023-02-19T00:18:10;99110.25;;;8.31;85.51
57779;BME280;43608;49.486;9.640;2023-02-19T00:18:41;99098.78;;;8.29;85.73
57779;BME280;43608;49.486;9.640;2023-02-19T00:19:16;99105.81;;;8.30;85.62
57779;BME280;43608;49.486;9.640;2023-02-19T00:19:47;99099.66;;;8.26;85.52
57779;BME280;43608;49.486;9.640;2023-02-19T00:20:17;99110.22;;;8.29;85.61
57779;BME280;43608;49.486;9.640;2023-02-19T00:20:47;99104.94;;;8.27;85.80
57779;BME280;43608;49.486;9.640;2023-02-19T00:21:18;99099.66;;;8.29;85.64
57779;BME280;43608;49.486;9.640;2023-02-19T00:21:51;99077.50;;;8.13;85.78
57779;BME280;43608;49.486;9.640;2023-02-19T00:22:22;99100.41;;;8.19;85.93
57779;BME280;43608;49.486;9.640;2023-02-19T00:22:52;99096.94;;;8.23;86.15
57779;BME280;43608;49.486;9.640;2023-02-19T00:23:23;99087.19;;;8.14;86.06
57779;BME280;43608;49.486;9.640;2023-02-19T00:23:56;99113.72;;;8.26;86.18
57779;BME280;43608;49.486;9.640;2023-02-19T00:24:27;99102.19;;;8.17;86.23
57779;BME280;43608;49.486;9.640;2023-02-19T00:24:57;99116.34;;;8.26;86.30
57779;BME280;43608;49.486;9.640;2023-02-19T00:25:27;99105.72;;;8.22;86.17
57779;BME280;43608;49.486;9.640;2023-02-19T00:26:06;99112.84;;;8.26;86.57
57779;BME280;43608;49.486;9.640;2023-02-19T00:26:37;99083.69;;;8.17;86.67
57779;BME280;43608;49.486;9.640;2023-02-19T00:27:09;99095.16;;;8.20;86.69
57779;BME280;43608;49.486;9.640;2023-02-19T00:27:39;99094.28;;;8.21;86.57
57779;BME280;43608;49.486;9.640;2023-02-19T00:28:09;99081.00;;;8.14;86.75
57779;BME280;43608;49.486;9.640;2023-02-19T00:28:40;99086.34;;;8.18;86.75
57779;BME280;43608;49.486;9.640;2023-02-19T00:29:16;99073.91;;;8.09;86.98
57779;BME280;43608;49.486;9.640;2023-02-19T00:29:46;99091.66;;;8.21;86.93
57779;BME280;43608;49.486;9.640;2023-02-19T00:30:17;99079.22;;;8.13;87.18
57779;BME280;43608;49.486;9.640;2023-02-19T00:30:47;99067.69;;;8.04;87.24
57779;BME280;43608;49.486;9.640;2023-02-19T00:31:19;99090.78;;;8.19;87.31
57779;BME280;43608;49.486;9.640;2023-02-19T00:31:50;99088.97;;;8.17;87.25
57779;BME280;43608;49.486;9.640;2023-02-19T00:32:20;99095.13;;;8.16;87.48
57779;BME280;43608;49.486;9.640;2023-02-19T00:32:50;99096.81;;;8.12;87.47
57779;BME280;43608;49.486;9.640;2023-02-19T00:33:21;99069.41;;;7.99;87.62
57779;BME280;43608;49.486;9.640;2023-02-19T00:33:53;99108.34;;;8.17;87.78
57779;BME280;43608;49.486;9.640;2023-02-19T00:34:24;99094.19;;;8.12;87.80
57779;BME280;43608;49.486;9.640;2023-02-19T00:34:54;99095.06;;;8.13;87.75
57779;BME280;43608;49.486;9.640;2023-02-19T00:35:25;99057.03;;;7.95;87.80
57779;BME280;43608;49.486;9.640;2023-02-19T00:35:58;99092.47;;;8.14;87.91
57779;BME280;43608;49.486;9.640;2023-02-19T00:36:30;99068.53;;;7.99;87.96
57779;BME280;43608;49.486;9.640;2023-02-19T00:37:01;99066.81;;;8.04;88.08
57779;BME280;43608;49.486;9.640;2023-02-19T00:37:31;99068.63;;;8.09;88.13
57779;BME280;43608;49.486;9.640;2023-02-19T00:38:02;99069.56;;;8.12;88.23
57779;BME280;43608;49.486;9.640;2023-02-19T00:38:37;99068.63;;;8.09;88.39
57779;BME280;43608;49.486;9.640;2023-02-19T00:39:15;99072.16;;;8.10;88.54
57779;BME280;43608;49.486;9.640;2023-02-19T00:39:47;99057.06;;;7.98;88.46
57779;BME280;43608;49.486;9.640;2023-02-19T00:40:17;99071.22;;;8.05;88.71
57779;BME280;43608;49.486;9.640;2023-02-19T00:40:48;99046.47;;;7.93;88.68
57779;BME280;43608;49.486;9.640;2023-02-19T00:41:20;99076.53;;;8.06;88.74
57779;BME280;43608;49.486;9.640;2023-02-19T00:41:51;99070.31;;;8.01;89.05
57779;BME280;43608;49.486;9.640;2023-02-19T00:42:21;99068.53;;;8.02;89.16
57779;BME280;43608;49.486;9.640;2023-02-19T00:42:52;99066.84;;;8.05;89.11
57779;BME280;43608;49.486;9.640;2023-02-19T00:43:22;99059.69;;;7.97;89.25
57779;BME280;43608;49.486;9.640;2023-02-19T00:43:55;99072.09;;;8.04;89.20
57779;BME280;43608;49.486;9.640;2023-02-19T00:44:25;99059.66;;;7.95;89.40
57779;BME280;43608;49.486;9.640;2023-02-19T00:44:56;99070.31;;;8.03;89.49
57779;BME280;43608;49.486;9.640;2023-02-19T00:45:26;99071.19;;;8.03;89.53
57779;BME280;43608;49.486;9.640;2023-02-19T00:45:57;99036.66;;;7.83;89.40
57779;BME280;43608;49.486;9.640;2023-02-19T00:46:59;99074.69;;;8.01;89.79
57779;BME280;43608;49.486;9.640;2023-02-19T00:47:29;99061.44;;;7.96;89.85
57779;BME280;43608;49.486;9.640;2023-02-19T00:48:00;99072.94;;;8.01;89.90
57779;BME280;43608;49.486;9.640;2023-02-19T00:48:30;99057.88;;;7.94;89.84
57779;BME280;43608;49.486;9.640;2023-02-19T00:49:01;99062.31;;;7.97;90.05
57779;BME280;43608;49.486;9.640;2023-02-19T00:49:31;99067.63;;;7.98;89.94
57779;BME280;43608;49.486;9.640;2023-02-19T00:50:02;99047.25;;;7.88;90.18
57779;BME280;43608;49.486;9.640;2023-02-19T00:50:32;99041.91;;;7.82;89.92
57779;BME280;43608;49.486;9.640;2023-02-19T00:51:03;99038.38;;;7.81;90.20
57779;BME280;43608;49.486;9.640;2023-02-19T00:51:35;99064.97;;;7.97;90.34
57779;BME280;43608;49.486;9.640;2023-02-19T00:52:06;98999.41;;;7.57;90.21
57779;BME280;43608;49.486;9.640;2023-02-19T00:52:37;99040.22;;;7.87;90.18
57779;BME280;43608;49.486;9.640;2023-02-19T00:53:07;99057.88;;;7.92;90.46
57779;BME280;43608;49.486;9.640;2023-02-19T00:53:37;99057.84;;;7.89;90.48
57779;BME280;43608;49.486;9.640;2023-02-19T00:54:09;99064.94;;;7.93;90.50
57779;BME280;43608;49.486;9.640;2023-02-19T00:54:39;99054.28;;;7.87;90.46
57779;BME280;43608;49.486;9.640;2023-02-19T00:55:10;99050.78;;;7.87;90.70
57779;BME280;43608;49.486;9.640;2023-02-19T00:55:40;99055.22;;;7.89;90.67
57779;BME280;43608;49.486;9.640;2023-02-19T00:56:10;99039.22;;;7.78;90.86
57779;BME280;43608;49.486;9.640;2023-02-19T00:56:41;99057.88;;;7.91;90.77
57779;BME280;43608;49.486;9.640;2023-02-19T00:57:12;99063.16;;;7.91;90.80
57779;BME280;43608;49.486;9.640;2023-02-19T00:57:42;99050.75;;;7.85;91.26
57779;BME280;43608;49.486;9.640;2023-02-19T00:58:12;99047.22;;;7.85;90.88
57779;BME280;43608;49.486;9.640;2023-02-19T00:58:43;99049.00;;;7.84;91.09
57779;BME280;43608;49.486;9.640;2023-02-19T00:59:13;99060.50;;;7.89;91.06
57779;BME280;43608;49.486;9.640;2023-02-19T00:59:44;99064.81;;;7.84;91.22
57779;BME280;43608;49.486;9.640;2023-02-19T01:00:14;99071.91;;;7.87;90.97
57779;BME280;43608;49.486;9.640;2023-02-19T01:00:45;99063.94;;;7.85;91.12
57779;BME280;43608;49.486;9.640;2023-02-19T01:01:16;99063.84;;;7.77;91.07
57779;BME280;43608;49.486;9.640;2023-02-19T01:01:47;99084.19;;;7.88;91.15
57779;BME280;43608;49.486;9.640;2023-02-19T01:02:18;99059.38;;;7.73;91.26
57779;BME280;43608;49.486;9.640;2023-02-19T01:02:49;99085.03;;;7.84;91.01
57779;BME280;43608;49.486;9.640;2023-02-19T01:03:19;99058.50;;;7.73;91.31
57779;BME280;43608;49.486;9.640;2023-02-19T01:03:51;99070.91;;;7.80;91.27
57779;BME280;43608;49.486;9.640;2023-02-19T01:04:22;99069.16;;;7.79;91.31
57779;BME280;43608;49.486;9.640;2023-02-19T01:04:52;99027.50;;;7.55;91.25
57779;BME280;43608;49.486;9.640;2023-02-19T01:05:22;99079.75;;;7.85;91.33
57779;BME280;43608;49.486;9.640;2023-02-19T01:05:53;99073.59;;;7.82;91.28
57779;BME280;43608;49.486;9.640;2023-02-19T01:06:23;99085.97;;;7.87;91.34
57779;BME280;43608;49.486;9.640;2023-02-19T01:06:54;99080.63;;;7.83;91.21
57779;BME280;43608;49.486;9.640;2023-02-19T01:07:25;99076.25;;;7.83;91.24
57779;BME280;43608;49.486;9.640;2023-02-19T01:07:55;99070.00;;;7.78;91.23
57779;BME280;43608;49.486;9.640;2023-02-19T01:08:26;99087.69;;;7.85;91.07
57779;BME280;43608;49.486;9.640;2023-02-19T01:08:56;99079.75;;;7.85;91.28
57779;BME280;43608;49.486;9.640;2023-02-19T01:09:27;99071.84;;;7.84;91.36
57779;BME280;43608;49.486;9.640;2023-02-19T01:09:57;99074.50;;;7.85;91.56
57779;BME280;43608;49.486;9.640;2023-02-19T01:10:27;99045.25;;;7.70;91.57
57779;BME280;43608;49.486;9.640;2023-02-19T01:10:58;99057.72;;;7.80;91.52
57779;BME280;43608;49.486;9.640;2023-02-19T01:11:28;99065.69;;;7.83;91.41
57779;BME280;43608;49.486;9.640;2023-02-19T01:11:59;99066.47;;;7.77;91.64
57779;BME280;43608;49.486;9.640;2023-02-19T01:12:30;99061.28;;;7.84;91.57
57779;BME280;43608;49.486;9.640;2023-02-19T01:13:00;99059.50;;;7.83;91.75
57779;BME280;43608;49.486;9.640;2023-02-19T01:13:31;99063.91;;;7.82;91.58
57779;BME280;43608;49.486;9.640;2023-02-19T01:14:02;99012.53;;;7.54;91.50
57779;BME280;43608;49.486;9.640;2023-02-19T01:14:32;99043.53;;;7.72;91.67
57779;BME280;43608;49.486;9.640;2023-02-19T01:15:03;99055.06;;;7.80;91.67
57779;BME280;43608;49.486;9.640;2023-02-19T01:15:34;99047.16;;;7.80;91.70
57779;BME280;43608;49.486;9.640;2023-02-19T01:16:07;99026.84;;;7.71;91.86
57779;BME280;43608;49.486;9.640;2023-02-19T01:16:38;99036.59;;;7.80;91.83
57779;BME280;43608;49.486;9.640;2023-02-19T01:17:08;99012.72;;;7.68;92.01
57779;BME280;43608;49.486;9.640;2023-02-19T01:17:38;99029.56;;;7.79;91.77
57779;BME280;43608;49.486;9.640;2023-02-19T01:18:09;99025.16;;;7.78;91.88
57779;BME280;43608;49.486;9.640;2023-02-19T01:18:40;99014.53;;;7.73;91.54
57779;BME280;43608;49.486;9.640;2023-02-19T01:19:10;99024.28;;;7.79;91.55
57779;BME280;43608;49.486;9.640;2023-02-19T01:19:41;99014.53;;;7.75;91.53
57779;BME280;43608;49.486;9.640;2023-02-19T01:20:11;99009.25;;;7.72;91.69
57779;BME280;43608;49.486;9.640;2023-02-19T01:20:43;99025.16;;;7.78;91.48
57779;BME280;43608;49.486;9.640;2023-02-19T01:21:17;99012.75;;;7.72;91.54
57779;BME280;43608;49.486;9.640;2023-02-19T01:21:47;99031.31;;;7.80;91.47
57779;BME280;43608;49.486;9.640;2023-02-19T01:22:18;99025.16;;;7.80;91.58
57779;BME280;43608;49.486;9.640;2023-02-19T01:22:48;99004.75;;;7.65;91.51
57779;BME280;43608;49.486;9.640;2023-02-19T01:23:19;99025.09;;;7.75;91.50
57779;BME280;43608;49.486;9.640;2023-02-19T01:23:50;99042.78;;;7.79;91.42
57779;BME280;43608;49.486;9.640;2023-02-19T01:24:21;99040.13;;;7.79;91.58
57779;BME280;43608;49.486;9.640;2023-02-19T01:24:51;99024.13;;;7.67;91.59
57779;BME280;43608;49.486;9.640;2023-02-19T01:25:21;99020.63;;;7.68;91.60
57779;BME280;43608;49.486;9.640;2023-02-19T01:25:52;99041.81;;;7.74;91.51
57779;BME280;43608;49.486;9.640;2023-02-19T01:26:25;99037.50;;;7.79;91.50
57779;BME280;43608;49.486;9.640;2023-02-19T01:26:55;99022.44;;;7.73;91.47
57779;BME280;43608;49.486;9.640;2023-02-19T01:27:26;99031.31;;;7.78;91.37
57779;BME280;43608;49.486;9.640;2023-02-19T01:27:56;99033.06;;;7.76;91.50
57779;BME280;43608;49.486;9.640;2023-02-19T01:28:26;98992.38;;;7.60;91.42
57779;BME280;43608;49.486;9.640;2023-02-19T01:29:00;99010.97;;;7.70;91.31
57779;BME280;43608;49.486;9.640;2023-02-19T01:29:31;99005.69;;;7.70;91.32
57779;BME280;43608;49.486;9.640;2023-02-19T01:30:01;99027.81;;;7.81;91.26
57779;BME280;43608;49.486;9.640;2023-02-19T01:30:35;99022.53;;;7.80;91.12
57779;BME280;43608;49.486;9.640;2023-02-19T01:31:08;99021.59;;;7.74;91.27
57779;BME280;43608;49.486;9.640;2023-02-19T01:31:40;99010.06;;;7.68;91.16
57779;BME280;43608;49.486;9.640;2023-02-19T01:32:11;99025.09;;;7.75;91.28
57779;BME280;43608;49.486;9.640;2023-02-19T01:32:41;99031.22;;;7.72;91.40
57779;BME280;43608;49.486;9.640;2023-02-19T01:33:12;99026.00;;;7.75;91.22
57779;BME280;43608;49.486;9.640;2023-02-19T01:33:47;99035.69;;;7.76;91.30
57779;BME280;43608;49.486;9.640;2023-02-19T01:34:17;99022.44;;;7.73;91.43
57779;BME280;43608;49.486;9.640;2023-02-19T01:34:48;99030.44;;;7.78;91.37
57779;BME280;43608;49.486;9.640;2023-02-19T01:35:18;99033.06;;;7.76;91.04
57779;BME280;43608;49.486;9.640;2023-02-19T01:35:48;99021.50;;;7.68;91.35
57779;BME280;43608;49.486;9.640;2023-02-19T01:36:19;99014.41;;;7.64;91.37
57779;BME280;43608;49.486;9.640;2023-02-19T01:36:49;99025.94;;;7.72;91.32
57779;BME280;43608;49.486;9.640;2023-02-19T01:37:19;99026.00;;;7.74;91.40
57779;BME280;43608;49.486;9.640;2023-02-19T01:37:50;99030.44;;;7.78;91.08
57779;BME280;43608;49.486;9.640;2023-02-19T01:38:20;98990.69;;;7.64;91.17
57779;BME280;43608;49.486;9.640;2023-02-19T01:38:51;99014.59;;;7.76;91.06
57779;BME280;43608;49.486;9.640;2023-02-19T01:39:21;99002.28;;;7.78;90.94
57779;BME280;43608;49.486;9.640;2023-02-19T01:39:51;99007.53;;;7.77;90.75
57779;BME280;43608;49.486;9.640;2023-02-19T01:40:22;99008.41;;;7.76;90.56
57779;BME280;43608;49.486;9.640;2023-02-19T01:41:01;99015.47;;;7.78;90.56
57779;BME280;43608;49.486;9.640;2023-02-19T01:41:34;99013.75;;;7.81;90.52
57779;BME280;43608;49.486;9.640;2023-02-19T01:42:12;99010.19;;;7.77;90.51
57779;BME280;43608;49.486;9.640;2023-02-19T01:42:43;99013.66;;;7.74;90.53
57779;BME280;43608;49.486;9.640;2023-02-19T01:43:15;99021.66;;;7.81;90.67
57779;BME280;43608;49.486;9.640;2023-02-19T01:44:03;99031.38;;;7.82;90.62
57779;BME280;43608;49.486;9.640;2023-02-19T01:45:34;99040.16;;;7.81;90.48
57779;BME280;43608;49.486;9.640;2023-02-19T01:46:07;99028.66;;;7.77;90.66
57779;BME280;43608;49.486;9.640;2023-02-19T01:46:39;99034.88;;;7.81;90.47
57779;BME280;43608;49.486;9.640;2023-02-19T01:47:10;99023.38;;;7.77;90.56
57779;BME280;43608;49.486;9.640;2023-02-19T01:47:40;99024.25;;;7.76;90.39
57779;BME280;43608;49.486;9.640;2023-02-19T01:48:14;99007.38;;;7.63;90.04
57779;BME280;43608;49.486;9.640;2023-02-19T01:48:46;99013.66;;;7.74;90.26
57779;BME280;43608;49.486;9.640;2023-02-19T01:49:55;99027.84;;;7.83;90.35
57779;BME280;43608;49.486;9.640;2023-02-19T01:50:29;99012.81;;;7.77;90.27
57779;BME280;43608;49.486;9.640;2023-02-19T01:51:08;99003.06;;;7.70;90.18
57779;BME280;43608;49.486;9.640;2023-02-19T01:51:45;99018.16;;;7.82;90.21
57779;BME280;43608;49.486;9.640;2023-02-19T01:52:56;99014.53;;;7.75;90.27
57779;BME280;43608;49.486;9.640;2023-02-19T01:53:34;99020.81;;;7.82;90.17
57779;BME280;43608;49.486;9.640;2023-02-19T01:54:08;99015.47;;;7.78;90.17
57779;BME280;43608;49.486;9.640;2023-02-19T01:54:41;99019.91;;;7.80;90.02
57779;BME280;43608;49.486;9.640;2023-02-19T01:55:12;99019.03;;;7.81;89.96
57779;BME280;43608;49.486;9.640;2023-02-19T01:55:45;98982.75;;;7.63;90.07
57779;BME280;43608;49.486;9.640;2023-02-19T01:56:18;99007.63;;;7.83;89.89
57779;BME280;43608;49.486;9.640;2023-02-19T01:56:50;98988.19;;;7.76;89.79
57779;BME280;43608;49.486;9.640;2023-02-19T01:57:24;98998.84;;;7.84;89.99
57779;BME280;43608;49.486;9.640;2023-02-19T01:57:55;98981.19;;;7.80;89.97
57779;BME280;43608;49.486;9.640;2023-02-19T01:58:28;98992.66;;;7.84;89.79
57779;BME280;43608;49.486;9.640;2023-02-19T01:59:00;98986.53;;;7.83;89.89
57779;BME280;43608;49.486;9.640;2023-02-19T01:59:32;98967.03;;;7.72;89.88
57779;BME280;43608;49.486;9.640;2023-02-19T02:00:07;98989.16;;;7.85;89.94
57779;BME280;43608;49.486;9.640;2023-02-19T02:00:38;98987.38;;;7.81;89.75
57779;BME280;43608;49.486;9.640;2023-02-19T02:01:08;98997.09;;;7.85;89.75
57779;BME280;43608;49.486;9.640;2023-02-19T02:01:39;98982.09;;;7.79;89.58
57779;BME280;43608;49.486;9.640;2023-02-19T02:02:10;98992.69;;;7.85;89.85
57779;BME280;43608;49.486;9.640;2023-02-19T02:02:42;98989.09;;;7.78;89.90
57779;BME280;43608;49.486;9.640;2023-02-19T02:03:13;98970.59;;;7.75;89.88
57779;BME280;43608;49.486;9.640;2023-02-19T02:03:46;98990.03;;;7.84;89.50
57779;BME280;43608;49.486;9.640;2023-02-19T02:04:18;98991.72;;;7.78;89.74
57779;BME280;43608;49.486;9.640;2023-02-19T02:04:49;98984.72;;;7.81;89.87
57779;BME280;43608;49.486;9.640;2023-02-19T02:05:31;98971.47;;;7.74;89.98
57779;BME280;43608;49.486;9.640;2023-02-19T02:06:16;98936.88;;;7.50;90.00
57779;BME280;43608;49.486;9.640;2023-02-19T02:06:50;98977.56;;;7.70;89.91
57779;BME280;43608;49.486;9.640;2023-02-19T02:07:21;98996.13;;;7.78;89.90
57779;BME280;43608;49.486;9.640;2023-02-19T02:08:12;98999.63;;;7.77;90.08
57779;BME280;43608;49.486;9.640;2023-02-19T02:09:01;98991.66;;;7.72;90.39
57779;BME280;43608;49.486;9.640;2023-02-19T02:09:51;98992.56;;;7.74;90.25
57779;BME280;43608;49.486;9.640;2023-02-19T02:10:41;99012.00;;;7.81;90.16
57779;BME280;43608;49.486;9.640;2023-02-19T02:11:12;98956.22;;;7.50;89.93
57779;BME280;43608;49.486;9.640;2023-02-19T02:11:48;98977.50;;;7.64;90.19
57779;BME280;43608;49.486;9.640;2023-02-19T02:12:19;99008.50;;;7.82;90.11
57779;BME280;43608;49.486;9.640;2023-02-19T02:12:52;98990.88;;;7.81;90.36
57779;BME280;43608;49.486;9.640;2023-02-19T02:13:25;98976.66;;;7.70;90.34
57779;BME280;43608;49.486;9.640;2023-02-19T02:13:56;98996.06;;;7.75;90.43
57779;BME280;43608;49.486;9.640;2023-02-19T02:14:29;99003.19;;;7.81;90.54
57779;BME280;43608;49.486;9.640;2023-02-19T02:15:00;98989.06;;;7.77;90.59
57779;BME280;43608;49.486;9.640;2023-02-19T02:15:38;98989.06;;;7.77;90.58
57779;BME280;43608;49.486;9.640;2023-02-19T02:16:24;98984.72;;;7.81;90.59
57779;BME280;43608;49.486;9.640;2023-02-19T02:17:25;98984.72;;;7.79;90.92
57779;BME280;43608;49.486;9.640;2023-02-19T02:18:08;98986.44;;;7.78;90.64
57779;BME280;43608;49.486;9.640;2023-02-19T02:21:55;98986.44;;;7.77;90.92
57779;BME280;43608;49.486;9.640;2023-02-19T02:22:35;98983.81;;;7.78;90.76
57779;BME280;43608;49.486;9.640;2023-02-19T02:26:21;98971.28;;;7.60;91.07
57779;BME280;43608;49.486;9.640;2023-02-19T02:31:26;98997.81;;;7.73;91.22
57779;BME280;43608;49.486;9.640;2023-02-19T02:32:11;98980.22;;;7.72;91.02
57779;BME280;43608;49.486;9.640;2023-02-19T02:32:56;98983.78;;;7.74;91.00
57779;BME280;43608;49.486;9.640;2023-02-19T02:34:05;98967.78;;;7.63;91.07
57779;BME280;43608;49.486;9.640;2023-02-19T02:34:47;98983.72;;;7.69;90.91
57779;BME280;43608;49.486;9.640;2023-02-19T02:35:26;98979.34;;;7.73;91.02
57779;BME280;43608;49.486;9.640;2023-02-19T02:36:02;98969.59;;;7.66;91.30
57779;BME280;43608;49.486;9.640;2023-02-19T02:36:40;98985.47;;;7.69;91.21
57779;BME280;43608;49.486;9.640;2023-02-19T02:37:13;98980.22;;;7.73;91.29
57779;BME280;43608;49.486;9.640;2023-02-19T02:37:45;98986.34;;;7.69;91.14
57779;BME280;43608;49.486;9.640;2023-02-19T02:38:17;98982.00;;;7.74;91.16
57779;BME280;43608;49.486;9.640;2023-02-19T02:38:50;98976.72;;;7.74;91.20
57779;BME280;43608;49.486;9.640;2023-02-19T02:39:25;98965.22;;;7.68;90.96
57779;BME280;43608;49.486;9.640;2023-02-19T02:39:58;98964.25;;;7.59;91.11
57779;BME280;43608;49.486;9.640;2023-02-19T02:40:28;98985.53;;;7.75;91.21
57779;BME280;43608;49.486;9.640;2023-02-19T02:40:59;98963.44;;;7.65;91.06
57779;BME280;43608;49.486;9.640;2023-02-19T02:41:31;98976.72;;;7.73;91.39
57779;BME280;43608;49.486;9.640;2023-02-19T02:42:02;98974.94;;;7.70;91.18
57779;BME280;43608;49.486;9.640;2023-02-19T02:42:51;98951.03;;;7.58;91.20
57779;BME280;43608;49.486;9.640;2023-02-19T02:43:22;98984.63;;;7.73;91.26
57779;BME280;43608;49.486;9.640;2023-02-19T02:43:52;98980.22;;;7.73;91.31
57779;BME280;43608;49.486;9.640;2023-02-19T02:44:33;98971.38;;;7.68;91.01
57779;BME280;43608;49.486;9.640;2023-02-19T02:46:04;98940.47;;;7.56;91.33
57779;BME280;43608;49.486;9.640;2023-02-19T02:46:38;98956.41;;;7.66;91.30
57779;BME280;43608;49.486;9.640;2023-02-19T02:47:10;98944.91;;;7.59;91.27
57779;BME280;43608;49.486;9.640;2023-02-19T02:48:26;98966.16;;;7.73;91.21
57779;BME280;43608;49.486;9.640;2023-02-19T02:48:59;98958.16;;;7.67;91.29
57779;BME280;43608;49.486;9.640;2023-02-19T02:49:31;98940.53;;;7.59;91.25
57779;BME280;43608;49.486;9.640;2023-02-19T02:50:02;98959.94;;;7.68;91.33
57779;BME280;43608;49.486;9.640;2023-02-19T02:50:42;98948.44;;;7.59;91.43
57779;BME280;43608;49.486;9.640;2023-02-19T02:51:24;98967.88;;;7.69;91.36
57779;BME280;43608;49.486;9.640;2023-02-19T02:51:56;98959.03;;;7.66;91.55
57779;BME280;43608;49.486;9.640;2023-02-19T02:52:27;98966.94;;;7.64;91.40
57779;BME280;43608;49.486;9.640;2023-02-19T02:53:23;98963.47;;;7.68;91.52
57779;BME280;43608;49.486;9.640;2023-02-19T02:54:17;98960.81;;;7.67;91.40
57779;BME280;43608;49.486;9.640;2023-02-19T02:55:09;98949.34;;;7.63;91.38
57779;BME280;43608;49.486;9.640;2023-02-19T02:55:43;98960.00;;;7.72;91.24
57779;BME280;43608;49.486;9.640;2023-02-19T02:56:15;98956.44;;;7.69;91.21
57779;BME280;43608;49.486;9.640;2023-02-19T02:56:48;98912.13;;;7.38;91.13
57779;BME280;43608;49.486;9.640;2023-02-19T02:57:19;98949.34;;;7.63;91.51
57779;BME280;43608;49.486;9.640;2023-02-19T02:57:50;98966.16;;;7.73;91.31
57779;BME280;43608;49.486;9.640;2023-02-19T02:58:22;98962.66;;;7.74;91.42
57779;BME280;43608;49.486;9.640;2023-02-19T02:58:55;98953.84;;;7.72;91.36
57779;BME280;43608;49.486;9.640;2023-02-19T02:59:30;98968.81;;;7.74;91.42
57779;BME280;43608;49.486;9.640;2023-02-19T03:00:02;98960.03;;;7.74;91.59
57779;BME280;43608;49.486;9.640;2023-02-19T03:00:33;98947.63;;;7.68;91.38
57779;BME280;43608;49.486;9.640;2023-02-19T03:01:28;98952.91;;;7.67;91.61
57779;BME280;43608;49.486;9.640;2023-02-19T03:02:22;98925.50;;;7.54;91.84
57779;BME280;43608;49.486;9.640;2023-02-19T03:02:54;98936.13;;;7.61;91.54
57779;BME280;43608;49.486;9.640;2023-02-19T03:03:27;98932.63;;;7.64;91.44
57779;BME280;43608;49.486;9.640;2023-02-19T03:04:03;98935.28;;;7.63;91.83
57779;BME280;43608;49.486;9.640;2023-02-19T03:05:34;98917.59;;;7.55;91.89
57779;BME280;43608;49.486;9.640;2023-02-19T03:06:24;98954.69;;;7.69;92.01
57779;BME280;43608;49.486;9.640;2023-02-19T03:07:00;98927.25;;;7.55;91.75
57779;BME280;43608;49.486;9.640;2023-02-19T03:07:37;98930.88;;;7.63;91.80
57779;BME280;43608;49.486;9.640;2023-02-19T03:08:14;98935.28;;;7.64;92.10
57779;BME280;43608;49.486;9.640;2023-02-19T03:09:08;98932.66;;;7.66;92.02
57779;BME280;43608;49.486;9.640;2023-02-19T03:09:41;98933.50;;;7.65;91.82
57779;BME280;43608;49.486;9.640;2023-02-19T03:10:16;98926.47;;;7.62;92.01
57779;BME280;43608;49.486;9.640;2023-02-19T03:11:00;98949.41;;;7.68;91.93
57779;BME280;43608;49.486;9.640;2023-02-19T03:11:53;98944.97;;;7.65;92.11
57779;BME280;43608;49.486;9.640;2023-02-19T03:12:44;98943.25;;;7.69;92.20
57779;BME280;43608;49.486;9.640;2023-02-19T03:13:36;98944.06;;;7.65;92.07
57779;BME280;43608;49.486;9.640;2023-02-19T03:14:39;98923.75;;;7.54;92.13
57779;BME280;43608;49.486;9.640;2023-02-19T03:15:35;98940.47;;;7.58;92.08
57779;BME280;43608;49.486;9.640;2023-02-19T03:16:32;98946.75;;;7.68;92.11
57779;BME280;43608;49.486;9.640;2023-02-19T03:17:50;98936.97;;;7.59;92.22